Florence, SC (29506)

4:14 AM EDT on July 26, 2016 (GMT -0400)
APRSWXNET | | Change Station
Active Advisory: Heat Advisory

Elev 121 ft 34.25 °N, 79.71 °W | Updated 26 minutes ago

Clear
Clear
77 °F
Feels Like 78 °F
N
3
Wind Variable Wind from SW
Gusts 7.0 mph

Today
High -- | Low -- °F
--% Chance of Precip.
Yesterday
High -- | Low -- °F
Precip. -- in
Pressure 30.01 in
Visibility 10.0 miles
Clouds Clear
Heat Index 78 °F
Dew Point 74 °F
Humidity 89%
Rainfall in
Snow Depth Not available.
6:26 AM 8:24 PM
Waning Gibbous, 57% visible
METAR KFLO 260753Z AUTO 22007KT 10SM CLR 26/23 A3002 RMK AO2 SLP162 T02560228
Pressure 30.01 in
Visibility 10.0 miles
Clouds Clear
Heat Index 78 °F
Dew Point 74 °F
Humidity 89%
Rainfall in
Snow Depth Not available.
6:26 AM 8:24 PM
Waning Gibbous, 57% visible
METAR KFLO 260753Z AUTO 22007KT 10SM CLR 26/23 A3002 RMK AO2 SLP162 T02560228

10-Day Weather Forecast

Almanac

Astronomy

Jul. 26, 2016 Rise Set
Actual Time
Civil Twilight
Nautical Twilight
Astronomical Twilight
Moon
Length of Visible Light
Length of Day
Tomorrow will be .
, % of the Moon is Illuminated

Today's Extremes

State Highs State Lows

Community

WunderPhotos

Upload Photos

1,927,551 photos uploaded!

WunderBlog® & News

Nearby

Air Quality

  Air Quality AQ Index Pollutant
Not available.

Snow Depth

Station Depth Elevation

Earthquake Activity

City Distance Mag. Time & Date
Minimum magnitude displayed is 2.5.

Coastal Water Temperatures

Place Temperature

Stations

Nearby Weather Stations

Station Location Temp. Windchill Dew Point Humidity Wind Precip. Elev Updated Type
                   

Watches & Warnings

Heat Advisory
Issued: 4:13 AM EDT Jul. 26, 2016 – National Weather Service

... Heat advisory now in effect from noon today to 7 PM EDT this
evening...

* heat index values... will peak between 105 and 108 due to
temperatures in the low to mid 90s... and dewpoints in the mid
70s except upper 70s along the immediate coast.

* Timing... the highest sustained heat index values will occur in
the mid to late afternoon hours.

* Impacts... the combination of hot temperatures and high humidity
will create a situation in which heat illnesses are possible. If
you suspect someone having a heat stroke... call 911 immediately.


Precautionary/preparedness actions...

To reduce the risk of heat illness during outdoor work...
the occupational safety and health administration recommends
scheduling frequent rest breaks in shaded or air conditioned
environments... and to drink plenty of non-alcoholic fluids.

Never leave children or pets unattended in a closed up
vehicle during the day. In just 15 minutes... temperatures
inside the vehicle could easily surpass 140 degrees.

Outdoor livestock and pets will also need plenty of
shade... a well ventilated environment... and plenty of
accessible drinking water.



Dough